Time;durP1;ratioP1;P1;durP2;ratioP2;P2;SDS_P1;SDS_P2;PMS_P1;PMS_P2;Temp;Humidity;BMP_temperature;BMP_pressure;BME280_temperature;BME280_humidity;BME280_pressure;Samples;Min_cycle;Max_cycle;Signal;HPM_P1;HPM_P2
2021/03/08 00:00:59;;;;;;;38.08;17.23;;;;;;;;;;5053046;28;20082;-68
2021/03/08 00:03:25;;;;;;;35.30;15.88;;;;;;;;;;5052940;28;20040;-68
2021/03/08 00:05:52;;;;;;;32.88;14.70;;;;;;;;;;5053133;28;20031;-67
2021/03/08 00:08:19;;;;;;;21.50;13.23;;;;;;;;;;5052694;28;20527;-67
2021/03/08 00:10:45;;;;;;;27.17;15.60;;;;;;;;;;5051577;28;20090;-68
2021/03/08 00:13:12;;;;;;;29.60;15.75;;;;;;;;;;5055607;28;20427;-68
2021/03/08 00:15:38;;;;;;;30.58;14.73;;;;;;;;;;5056529;28;20462;-68
2021/03/08 00:18:04;;;;;;;30.98;15.65;;;;;;;;;;5056370;28;20036;-68
2021/03/08 00:20:31;;;;;;;24.30;14.10;;;;;;;;;;5056609;28;20036;-68
2021/03/08 00:22:57;;;;;;;22.08;13.15;;;;;;;;;;5056367;28;20116;-67
2021/03/08 00:25:25;;;;;;;17.52;9.93;;;;;;;;;;5056402;28;20489;-67
2021/03/08 00:27:51;;;;;;;20.98;11.43;;;;;;;;;;5056296;28;20518;-68
2021/03/08 00:30:18;;;;;;;21.73;12.32;;;;;;;;;;5056346;28;20036;-68
2021/03/08 00:32:44;;;;;;;18.73;11.60;;;;;;;;;;5056456;28;20028;-68
2021/03/08 00:35:11;;;;;;;21.10;12.00;;;;;;;;;;5056433;28;20104;-68
2021/03/08 00:37:37;;;;;;;18.38;12.48;;;;;;;;;;5056366;28;20025;-68
2021/03/08 00:40:03;;;;;;;;;;;;;;;;;;5056676;28;20064;-67
2021/03/08 00:42:30;;;;;;;18.98;11.93;;;;;;;;;;5055954;28;20139;-68
2021/03/08 00:44:56;;;;;;;16.02;10.95;;;;;;;;;;5056279;28;20033;-67
2021/03/08 00:47:23;;;;;;;15.57;10.55;;;;;;;;;;5056269;28;20017;-67
2021/03/08 00:49:49;;;;;;;19.80;12.00;;;;;;;;;;5055893;28;20375;-67
2021/03/08 00:52:15;;;;;;;24.52;12.82;;;;;;;;;;5055906;28;20095;-68
2021/03/08 00:54:41;;;;;;;19.38;11.40;;;;;;;;;;5056255;28;20047;-68
2021/03/08 00:57:08;;;;;;;21.02;11.57;;;;;;;;;;5056137;28;20058;-67
2021/03/08 00:59:34;;;;;;;27.80;11.60;;;;;;;;;;5055853;28;20409;-67
2021/03/08 01:02:00;;;;;;;18.42;10.45;;;;;;;;;;5055681;28;20021;-67
2021/03/08 01:04:27;;;;;;;21.67;11.05;;;;;;;;;;5055724;28;20079;-67
2021/03/08 01:06:53;;;;;;;23.90;11.77;;;;;;;;;;5055905;28;20382;-67
2021/03/08 01:09:19;;;;;;;19.92;10.75;;;;;;;;;;5055533;28;20409;-67
2021/03/08 01:11:45;;;;;;;20.67;11.20;;;;;;;;;;5055705;28;20414;-68
2021/03/08 01:14:12;;;;;;;21.02;11.90;;;;;;;;;;5055455;28;20398;-68
2021/03/08 01:16:38;;;;;;;22.50;12.38;;;;;;;;;;5054213;28;20512;-67
2021/03/08 01:19:05;;;;;;;21.75;12.30;;;;;;;;;;5055226;28;20028;-67
2021/03/08 01:21:32;;;;;;;20.80;11.68;;;;;;;;;;5055434;28;19904;-67
2021/03/08 01:23:58;;;;;;;22.77;12.23;;;;;;;;;;5055165;28;20029;-67
2021/03/08 01:26:25;;;;;;;20.33;11.98;;;;;;;;;;5055226;28;20033;-67
2021/03/08 01:28:51;;;;;;;19.45;11.60;;;;;;;;;;5055143;28;20021;-67
2021/03/08 01:31:17;;;;;;;24.58;12.27;;;;;;;;;;5055158;28;20477;-67
2021/03/08 01:33:43;;;;;;;24.33;12.95;;;;;;;;;;5055116;28;20028;-67
2021/03/08 01:36:09;;;;;;;19.77;12.15;;;;;;;;;;5055145;28;20025;-67
2021/03/08 01:38:36;;;;;;;22.40;12.73;;;;;;;;;;5055019;28;20028;-67
2021/03/08 01:41:02;;;;;;;19.80;11.70;;;;;;;;;;5055268;28;20432;-67
2021/03/08 01:43:28;;;;;;;21.20;12.00;;;;;;;;;;5053944;28;20281;-67
2021/03/08 01:45:54;;;;;;;;;;;;;;;;;;5055635;28;19905;-67
2021/03/08 01:48:20;;;;;;;;;;;;;;;;;;5055361;28;20269;-67
2021/03/08 01:50:46;;;;;;;;;;;;;;;;;;5055249;28;19916;-67
2021/03/08 01:53:13;;;;;;;17.50;11.15;;;;;;;;;;5055573;28;19905;-67
2021/03/08 01:55:40;;;;;;;20.73;12.35;;;;;;;;;;5054950;28;20032;-67
2021/03/08 01:58:06;;;;;;;18.63;11.45;;;;;;;;;;5054687;28;20040;-67
2021/03/08 02:00:33;;;;;;;22.90;12.07;;;;;;;;;;5054589;28;20086;-67
2021/03/08 02:03:00;;;;;;;18.33;11.20;;;;;;;;;;5054612;28;20041;-67
2021/03/08 02:05:31;;;;;;;22.23;11.77;;;;;;;;;;5054554;28;20428;-67
2021/03/08 02:07:57;;;;;;;20.40;12.05;;;;;;;;;;5054613;28;20109;-67
2021/03/08 02:10:24;;;;;;;18.55;10.30;;;;;;;;;;5054441;28;20036;-67
2021/03/08 02:12:59;;;;;;;17.75;9.82;;;;;;;;;;5054550;28;20351;-67
2021/03/08 02:15:35;;;;;;;17.02;10.85;;;;;;;;;;5054321;28;20033;-67
2021/03/08 02:18:06;;;;;;;15.40;9.73;;;;;;;;;;5054300;28;20039;-68
2021/03/08 02:20:48;;;;;;;16.77;10.02;;;;;;;;;;5054598;28;20032;-68
2021/03/08 02:23:20;;;;;;;16.13;10.10;;;;;;;;;;5054493;28;20032;-68
2021/03/08 02:25:46;;;;;;;;;;;;;;;;;;5054962;28;20037;-68
2021/03/08 02:28:31;;;;;;;17.35;10.80;;;;;;;;;;5054094;28;19957;-68
2021/03/08 02:31:00;;;;;;;19.80;10.55;;;;;;;;;;5054270;28;20029;-67
2021/03/08 02:33:29;;;;;;;18.67;10.77;;;;;;;;;;5053782;28;20516;-67
2021/03/08 02:35:56;;;;;;;18.67;10.57;;;;;;;;;;5053702;28;20017;-68
2021/03/08 02:38:33;;;;;;;21.05;10.85;;;;;;;;;;5054125;28;20534;-67
2021/03/08 02:41:03;;;;;;;17.38;11.00;;;;;;;;;;5053841;28;20405;-67
2021/03/08 02:43:35;;;;;;;22.50;10.82;;;;;;;;;;5053639;28;20479;-67
2021/03/08 02:46:04;;;;;;;16.93;10.50;;;;;;;;;;5053868;28;20035;-67
2021/03/08 02:48:32;;;;;;;17.85;11.18;;;;;;;;;;5053657;28;20074;-67
2021/03/08 02:51:01;;;;;;;16.45;10.27;;;;;;;;;;5053615;28;20108;-68
2021/03/08 02:53:28;;;;;;;16.08;10.70;;;;;;;;;;5053767;28;20017;-67
2021/03/08 02:55:58;;;;;;;16.83;10.75;;;;;;;;;;5053919;28;20381;-67
2021/03/08 02:58:26;;;;;;;22.52;10.82;;;;;;;;;;5054087;28;20424;-67
2021/03/08 03:00:52;;;;;;;18.33;10.55;;;;;;;;;;5053450;28;20147;-67
2021/03/08 03:03:20;;;;;;;18.52;10.88;;;;;;;;;;5053497;28;20083;-67
2021/03/08 03:05:47;;;;;;;15.80;9.80;;;;;;;;;;5053477;28;20037;-68
2021/03/08 03:08:14;;;;;;;18.98;11.27;;;;;;;;;;5053425;28;20021;-68
2021/03/08 03:10:40;;;;;;;20.52;11.13;;;;;;;;;;5053359;28;20386;-67
2021/03/08 03:13:07;;;;;;;17.38;10.60;;;;;;;;;;5053324;28;20029;-67
2021/03/08 03:15:37;;;;;;;20.92;10.48;;;;;;;;;;5053498;28;20031;-68
2021/03/08 03:18:04;;;;;;;18.95;10.77;;;;;;;;;;5053346;28;20045;-68
2021/03/08 03:20:30;;;;;;;21.30;11.65;;;;;;;;;;5053173;28;20120;-68
2021/03/08 03:22:57;;;;;;;18.40;10.70;;;;;;;;;;5053303;28;20059;-67
2021/03/08 03:25:24;;;;;;;17.45;11.82;;;;;;;;;;5053498;28;20048;-67
2021/03/08 03:27:52;;;;;;;18.73;10.98;;;;;;;;;;5053146;28;20029;-67
2021/03/08 03:30:19;;;;;;;18.13;10.73;;;;;;;;;;5053484;28;20021;-67
2021/03/08 03:32:45;;;;;;;18.55;10.93;;;;;;;;;;5053197;28;20032;-67
2021/03/08 03:35:12;;;;;;;15.95;10.07;;;;;;;;;;5052963;28;20466;-68
2021/03/08 03:37:39;;;;;;;16.25;10.27;;;;;;;;;;5053335;28;20052;-67
2021/03/08 03:40:06;;;;;;;20.40;11.27;;;;;;;;;;5052927;28;20056;-67
2021/03/08 03:42:32;;;;;;;17.50;10.57;;;;;;;;;;5052870;28;20095;-67
2021/03/08 03:44:58;;;;;;;20.25;11.32;;;;;;;;;;5053025;28;20031;-68
2021/03/08 03:47:24;;;;;;;21.35;11.93;;;;;;;;;;5054539;28;20032;-68
2021/03/08 03:49:51;;;;;;;21.27;11.77;;;;;;;;;;5057044;28;20032;-68
2021/03/08 03:52:17;;;;;;;15.82;10.68;;;;;;;;;;5057071;28;20086;-68
2021/03/08 03:54:43;;;;;;;18.20;10.52;;;;;;;;;;5056981;28;20084;-68
2021/03/08 03:57:11;;;;;;;18.33;10.23;;;;;;;;;;5057307;28;20537;-68
2021/03/08 03:59:43;;;;;;;20.90;11.60;;;;;;;;;;5056756;28;20071;-68
2021/03/08 04:02:11;;;;;;;19.25;11.63;;;;;;;;;;5057184;28;20029;-68
2021/03/08 04:04:48;;;;;;;16.88;10.15;;;;;;;;;;5056814;28;20124;-67
2021/03/08 04:07:14;;;;;;;18.70;10.95;;;;;;;;;;5057036;28;20529;-67
2021/03/08 04:09:43;;;;;;;18.95;11.50;;;;;;;;;;5056734;28;20021;-67
2021/03/08 04:12:10;;;;;;;17.52;11.20;;;;;;;;;;5056680;28;20021;-67
2021/03/08 04:14:36;;;;;;;18.80;10.63;;;;;;;;;;5056826;28;20036;-68
2021/03/08 04:17:03;;;;;;;18.70;10.85;;;;;;;;;;5056706;28;20027;-67
2021/03/08 04:19:30;;;;;;;19.17;11.00;;;;;;;;;;5056584;28;20116;-67
2021/03/08 04:22:03;;;;;;;19.48;11.32;;;;;;;;;;5056751;28;20025;-69
2021/03/08 04:24:30;;;;;;;20.23;10.88;;;;;;;;;;5056451;28;20023;-67
2021/03/08 04:26:57;;;;;;;19.90;11.07;;;;;;;;;;5056612;28;20112;-68
2021/03/08 04:29:23;;;;;;;18.63;10.93;;;;;;;;;;5056513;28;20025;-67
2021/03/08 04:31:50;;;;;;;18.92;10.68;;;;;;;;;;5056375;28;20437;-67
2021/03/08 04:34:16;;;;;;;19.48;11.05;;;;;;;;;;5056174;28;20466;-67
2021/03/08 04:36:43;;;;;;;18.95;11.00;;;;;;;;;;5056357;28;20070;-68
2021/03/08 04:39:10;;;;;;;18.05;10.90;;;;;;;;;;5056118;28;20073;-68
2021/03/08 04:41:37;;;;;;;17.88;11.40;;;;;;;;;;5056116;28;20148;-67
2021/03/08 04:44:03;;;;;;;20.15;11.00;;;;;;;;;;5056188;28;20091;-68
2021/03/08 04:46:29;;;;;;;;;;;;;;;;;;5056363;28;20036;-67
2021/03/08 04:48:55;;;;;;;;;;;;;;;;;;5056524;28;19905;-68
2021/03/08 04:51:21;;;;;;;;;;;;;;;;;;5056497;28;19920;-68
2021/03/08 04:53:47;;;;;;;;;;;;;;;;;;5056441;28;19905;-68
2021/03/08 04:56:13;;;;;;;;;;;;;;;;;;5055207;28;19950;-67
2021/03/08 04:58:39;;;;;;;;;;;;;;;;;;5054514;28;19904;-68
2021/03/08 05:01:05;;;;;;;;;;;;;;;;;;5056242;28;19913;-68
2021/03/08 05:03:31;;;;;;;;;;;;;;;;;;5056270;28;20358;-67
2021/03/08 05:05:57;;;;;;;;;;;;;;;;;;5056192;28;19940;-68
2021/03/08 05:08:23;;;;;;;;;;;;;;;;;;5056136;28;19912;-68
2021/03/08 05:10:49;;;;;;;;;;;;;;;;;;5056417;28;19940;-67
2021/03/08 05:13:15;;;;;;;;;;;;;;;;;;5055987;28;20358;-67
2021/03/08 05:15:41;;;;;;;;;;;;;;;;;;5056004;28;19905;-67
2021/03/08 05:18:07;;;;;;;;;;;;;;;;;;5055968;28;19957;-67
2021/03/08 05:20:33;;;;;;;;;;;;;;;;;;5055864;28;20297;-68
2021/03/08 05:22:59;;;;;;;;;;;;;;;;;;5055880;28;19911;-67
2021/03/08 05:25:25;;;;;;;;;;;;;;;;;;5056057;28;20449;-67
2021/03/08 05:27:51;;;;;;;;;;;;;;;;;;5055883;28;19927;-67
2021/03/08 05:30:17;;;;;;;;;;;;;;;;;;5055598;28;19908;-68
2021/03/08 05:32:42;;;;;;;;;;;;;;;;;;5055799;28;19905;-67
2021/03/08 05:35:08;;;;;;;;;;;;;;;;;;5055676;28;19908;-67
2021/03/08 05:37:34;;;;;;;;;;;;;;;;;;5055965;28;19991;-67
2021/03/08 05:40:00;;;;;;;;;;;;;;;;;;5055549;28;20369;-67
2021/03/08 05:42:26;;;;;;;;;;;;;;;;;;5055390;28;20357;-79
2021/03/08 05:44:52;;;;;;;;;;;;;;;;;;5055631;28;19912;-67
2021/03/08 05:47:18;;;;;;;;;;;;;;;;;;5055460;28;19905;-67
2021/03/08 05:49:44;;;;;;;;;;;;;;;;;;5055320;28;19931;-67
2021/03/08 05:52:10;;;;;;;;;;;;;;;;;;5055387;28;19905;-67
2021/03/08 05:54:36;;;;;;;;;;;;;;;;;;5055664;28;19916;-67
2021/03/08 05:57:02;;;;;;;;;;;;;;;;;;5055217;28;20323;-67
2021/03/08 05:59:28;;;;;;;;;;;;;;;;;;5055287;28;19913;-67
2021/03/08 06:01:54;;;;;;;;;;;;;;;;;;5055132;28;19912;-67
2021/03/08 06:04:20;;;;;;;;;;;;;;;;;;5055395;28;20280;-67
2021/03/08 06:06:46;;;;;;;;;;;;;;;;;;5055017;28;19912;-67
2021/03/08 06:09:12;;;;;;;;;;;;;;;;;;5055147;28;19905;-67
2021/03/08 06:11:38;;;;;;;;;;;;;;;;;;5054624;28;19958;-68
2021/03/08 06:14:04;;;;;;;;;;;;;;;;;;5054979;28;20420;-67
2021/03/08 06:16:30;;;;;;;;;;;;;;;;;;5054873;28;19905;-67
2021/03/08 06:18:56;;;;;;;;;;;;;;;;;;5054759;28;19908;-67
2021/03/08 06:21:22;;;;;;;;;;;;;;;;;;5054582;28;19913;-67
2021/03/08 06:23:48;;;;;;;;;;;;;;;;;;5054796;28;19959;-67
2021/03/08 06:26:14;;;;;;;27.95;12.45;;;;;;;;;;5054433;28;19912;-67
2021/03/08 06:28:41;;;;;;;21.63;12.25;;;;;;;;;;5054079;28;20033;-68
2021/03/08 06:31:08;;;;;;;22.75;12.52;;;;;;;;;;5053972;28;20029;-67
2021/03/08 06:33:35;;;;;;;25.00;12.68;;;;;;;;;;5054044;28;20036;-67
2021/03/08 06:36:01;;;;;;;27.17;14.65;;;;;;;;;;5054113;28;20016;-67
2021/03/08 06:38:31;;;;;;;27.65;14.32;;;;;;;;;;5054161;28;20029;-68
2021/03/08 06:40:59;;;;;;;26.33;15.32;;;;;;;;;;5055448;28;20095;-67
2021/03/08 06:43:28;;;;;;;27.15;13.45;;;;;;;;;;5078368;28;20392;-68
2021/03/08 06:45:55;;;;;;;32.72;14.85;;;;;;;;;;5072433;28;20078;-70
2021/03/08 06:48:22;;;;;;;31.27;13.80;;;;;;;;;;5072955;28;20021;-70
2021/03/08 06:51:04;;;;;;;24.10;13.32;;;;;;;;;;5074352;28;20111;-69
2021/03/08 06:53:30;;;;;;;28.23;13.13;;;;;;;;;;5073952;28;20391;-69
2021/03/08 06:56:11;;;;;;;31.33;14.50;;;;;;;;;;5073745;28;20024;-70
2021/03/08 06:58:37;;;;;;;25.23;15.02;;;;;;;;;;5073567;28;20040;-71
2021/03/08 07:01:04;;;;;;;29.67;15.88;;;;;;;;;;5073526;28;20040;-69
2021/03/08 07:03:33;;;;;;;33.08;17.55;;;;;;;;;;5073441;28;20028;-70
2021/03/08 07:06:15;;;;;;;31.17;16.27;;;;;;;;;;5073255;28;20024;-70
2021/03/08 07:08:42;;;;;;;26.80;14.02;;;;;;;;;;5065695;28;20104;-70
2021/03/08 07:11:17;;;;;;;22.35;14.02;;;;;;;;;;5073335;28;20547;-69
2021/03/08 07:13:43;;;;;;;22.67;14.23;;;;;;;;;;5073614;28;20035;-70
2021/03/08 07:16:10;;;;;;;29.08;15.07;;;;;;;;;;5073244;28;20025;-71
2021/03/08 07:18:36;;;;;;;27.50;14.95;;;;;;;;;;5073621;28;20051;-70
2021/03/08 07:21:21;;;;;;;28.83;15.10;;;;;;;;;;5073071;28;20043;-69
2021/03/08 07:23:50;;;;;;;30.45;15.63;;;;;;;;;;5073454;28;20028;-69
2021/03/08 07:26:17;;;;;;;20.92;14.20;;;;;;;;;;5073189;28;20089;-69
2021/03/08 07:28:44;;;;;;;34.50;16.08;;;;;;;;;;5073497;28;20104;-68
2021/03/08 07:31:30;;;;;;;26.65;15.50;;;;;;;;;;5076082;28;20017;-69
2021/03/08 07:34:02;;;;;;;25.92;13.38;;;;;;;;;;5077032;28;20040;-69
2021/03/08 07:36:29;;;;;;;25.27;13.18;;;;;;;;;;5093699;28;20028;-69
2021/03/08 07:38:55;;;;;;;26.25;13.20;;;;;;;;;;5093651;28;20024;-69
2021/03/08 07:41:22;;;;;;;23.73;14.38;;;;;;;;;;5093211;28;20072;-70
2021/03/08 07:43:51;;;;;;;25.27;13.82;;;;;;;;;;5086037;28;20028;-70
2021/03/08 07:46:28;;;;;;;23.35;14.65;;;;;;;;;;5067314;28;20423;-69
2021/03/08 07:48:55;;;;;;;22.30;13.75;;;;;;;;;;5061327;28;20025;-67
2021/03/08 07:51:21;;;;;;;31.05;14.88;;;;;;;;;;5069833;28;20055;-68
2021/03/08 07:53:47;;;;;;;25.63;15.65;;;;;;;;;;5073144;28;20025;-69
2021/03/08 07:56:14;;;;;;;24.17;15.43;;;;;;;;;;5072618;28;20012;-67
2021/03/08 07:58:40;;;;;;;28.05;16.42;;;;;;;;;;5071372;28;20086;-68
2021/03/08 08:01:07;;;;;;;29.25;15.15;;;;;;;;;;5073093;28;20028;-68
2021/03/08 08:03:34;;;;;;;25.40;14.98;;;;;;;;;;5072830;28;20075;-68
2021/03/08 08:06:02;;;;;;;26.85;13.70;;;;;;;;;;5071648;28;20029;-68
2021/03/08 08:08:29;;;;;;;25.15;17.15;;;;;;;;;;5072871;28;20431;-68
2021/03/08 08:10:56;;;;;;;20.58;14.02;;;;;;;;;;5072998;28;20028;-68
2021/03/08 08:13:23;;;;;;;33.95;16.55;;;;;;;;;;5081382;28;20036;-68
2021/03/08 08:15:50;;;;;;;39.15;19.65;;;;;;;;;;5092936;28;20032;-68
2021/03/08 08:18:18;;;;;;;25.80;15.07;;;;;;;;;;5073658;28;20029;-68
2021/03/08 08:20:48;;;;;;;34.65;15.70;;;;;;;;;;5072592;28;20043;-67
2021/03/08 08:23:15;;;;;;;30.02;15.35;;;;;;;;;;5073146;28;20028;-69
2021/03/08 08:25:41;;;;;;;21.85;14.57;;;;;;;;;;5072653;28;20021;-68
2021/03/08 08:28:07;;;;;;;22.73;14.00;;;;;;;;;;5072810;28;20074;-68
2021/03/08 08:30:34;;;;;;;27.58;13.65;;;;;;;;;;5072539;28;20040;-68
2021/03/08 08:33:00;;;;;;;32.30;18.08;;;;;;;;;;5073088;28;20055;-68
2021/03/08 08:35:28;;;;;;;31.08;16.42;;;;;;;;;;5076462;28;20462;-67
2021/03/08 08:38:20;;;;;;;31.20;16.23;;;;;;;;;;5076167;28;20019;-68
2021/03/08 08:40:46;;;;;;;33.25;17.63;;;;;;;;;;5076206;28;20037;-67
2021/03/08 08:43:15;;;;;;;67.65;30.63;;;;;;;;;;5076213;28;20043;-68
2021/03/08 08:45:43;;;;;;;48.28;17.95;;;;;;;;;;5076078;28;20024;-68
2021/03/08 08:48:10;;;;;;;24.45;14.07;;;;;;;;;;5075627;28;20016;-67
2021/03/08 08:50:48;;;;;;;39.17;16.23;;;;;;;;;;5087439;28;20169;-67
2021/03/08 08:53:34;;;;;;;28.30;15.82;;;;;;;;;;5080491;28;20469;-68
2021/03/08 08:56:00;;;;;;;23.50;13.70;;;;;;;;;;5091840;28;20021;-68
2021/03/08 08:58:53;;;;;;;23.77;15.15;;;;;;;;;;5076955;28;20028;-69
2021/03/08 09:01:27;;;;;;;27.60;14.30;;;;;;;;;;5080428;28;20048;-68
2021/03/08 09:03:59;;;;;;;19.88;11.73;;;;;;;;;;5075665;28;20103;-68
2021/03/08 09:06:44;;;;;;;25.67;13.80;;;;;;;;;;5075814;28;20078;-69
2021/03/08 09:09:12;;;;;;;23.80;12.73;;;;;;;;;;5075627;28;20030;-70
2021/03/08 09:11:42;;;;;;;21.25;12.70;;;;;;;;;;5075580;28;20108;-70
2021/03/08 09:14:29;;;;;;;27.77;12.73;;;;;;;;;;5075547;28;20099;-69
2021/03/08 09:17:14;;;;;;;27.40;14.45;;;;;;;;;;5075579;28;20055;-69
2021/03/08 09:19:41;;;;;;;26.27;11.90;;;;;;;;;;5075456;28;20097;-69
2021/03/08 09:22:25;;;;;;;22.77;12.65;;;;;;;;;;5075416;28;20067;-70
2021/03/08 09:24:56;;;;;;;26.92;13.35;;;;;;;;;;5075414;28;20017;-69
2021/03/08 09:27:22;;;;;;;36.60;12.98;;;;;;;;;;5075580;28;20031;-69
2021/03/08 09:29:49;;;;;;;31.33;14.27;;;;;;;;;;5075556;28;20025;-69
2021/03/08 09:32:16;;;;;;;23.27;13.43;;;;;;;;;;5075303;28;20095;-69
2021/03/08 09:34:42;;;;;;;22.75;13.45;;;;;;;;;;5075040;28;20028;-70
2021/03/08 09:37:08;;;;;;;25.75;13.57;;;;;;;;;;5075384;28;20024;-69
2021/03/08 09:39:55;;;;;;;27.75;14.50;;;;;;;;;;5074916;28;20032;-69
2021/03/08 09:42:21;;;;;;;27.33;13.38;;;;;;;;;;5075138;28;20570;-69
2021/03/08 09:44:48;;;;;;;24.30;14.43;;;;;;;;;;5074988;28;20392;-69
2021/03/08 09:47:14;;;;;;;22.80;15.20;;;;;;;;;;5075051;28;20028;-69
2021/03/08 09:49:49;;;;;;;25.13;14.93;;;;;;;;;;5074717;28;20536;-69
2021/03/08 09:52:35;;;;;;;23.63;16.67;;;;;;;;;;5074855;28;20028;-69
2021/03/08 09:55:02;;;;;;;27.88;17.08;;;;;;;;;;5074997;28;20029;-69
2021/03/08 09:57:34;;;;;;;24.05;17.73;;;;;;;;;;5074709;28;20035;-69
2021/03/08 10:00:01;;;;;;;25.92;17.95;;;;;;;;;;5074609;28;20068;-69
2021/03/08 10:02:27;;;;;;;32.05;18.67;;;;;;;;;;5075215;28;20086;-70
2021/03/08 10:04:54;;;;;;;30.45;17.55;;;;;;;;;;5074432;28;20023;-66
2021/03/08 10:07:20;;;;;;;22.10;15.93;;;;;;;;;;5074539;28;20334;-68
2021/03/08 10:09:46;;;;;;;25.13;17.80;;;;;;;;;;5074699;28;20025;-69
2021/03/08 10:12:13;;;;;;;26.08;17.27;;;;;;;;;;5074464;28;20033;-68
2021/03/08 10:14:39;;;;;;;32.13;17.67;;;;;;;;;;5074247;28;20016;-68
2021/03/08 10:17:10;;;;;;;24.38;16.42;;;;;;;;;;5074251;28;20033;-67
2021/03/08 10:19:36;;;;;;;37.80;17.63;;;;;;;;;;5077668;28;20043;-68
2021/03/08 10:22:03;;;;;;;24.13;16.30;;;;;;;;;;5074328;28;20036;-69
2021/03/08 10:24:39;;;;;;;26.65;16.67;;;;;;;;;;5086230;28;20016;-69
2021/03/08 10:27:15;;;;;;;23.70;16.33;;;;;;;;;;5094920;28;20031;-69
2021/03/08 10:29:42;;;;;;;21.52;16.33;;;;;;;;;;5094531;28;20074;-69
2021/03/08 10:32:12;;;;;;;28.25;18.25;;;;;;;;;;5094390;28;20426;-69
2021/03/08 10:34:39;;;;;;;30.67;18.67;;;;;;;;;;5094134;28;20020;-69
2021/03/08 10:37:05;;;;;;;26.20;16.92;;;;;;;;;;5094445;28;20031;-68
2021/03/08 10:39:32;;;;;;;32.30;20.20;;;;;;;;;;5085410;28;20067;-69
2021/03/08 10:41:58;;;;;;;22.40;15.88;;;;;;;;;;5085033;28;20075;-68
2021/03/08 10:44:25;;;;;;;26.77;17.50;;;;;;;;;;5077845;28;20029;-68
2021/03/08 10:46:52;;;;;;;21.80;16.30;;;;;;;;;;5075965;28;20921;-69
2021/03/08 10:49:18;;;;;;;27.65;17.20;;;;;;;;;;5083592;28;20163;-68
2021/03/08 10:51:44;;;;;;;25.23;15.90;;;;;;;;;;5080093;28;20032;-68
2021/03/08 10:54:11;;;;;;;27.60;15.23;;;;;;;;;;5073497;28;20154;-69
2021/03/08 10:56:39;;;;;;;23.60;16.15;;;;;;;;;;5073418;28;20024;-69
2021/03/08 10:59:21;;;;;;;22.05;16.58;;;;;;;;;;5073488;28;20374;-69
2021/03/08 11:02:04;;;;;;;21.38;15.75;;;;;;;;;;5079025;28;20409;-69
2021/03/08 11:04:30;;;;;;;22.10;15.90;;;;;;;;;;5091044;28;20024;-69
2021/03/08 11:06:56;;;;;;;23.90;16.75;;;;;;;;;;5093793;28;20495;-69
2021/03/08 11:09:29;;;;;;;21.92;16.02;;;;;;;;;;5086005;28;20103;-69
2021/03/08 11:11:56;;;;;;;19.88;14.85;;;;;;;;;;5090216;28;20123;-70
2021/03/08 11:14:22;;;;;;;21.92;16.45;;;;;;;;;;5093313;28;20141;-68
2021/03/08 11:16:58;;;;;;;26.20;16.52;;;;;;;;;;5079978;28;20031;-68
2021/03/08 11:19:29;;;;;;;23.90;15.05;;;;;;;;;;5093353;28;20031;-70
2021/03/08 11:22:01;;;;;;;28.80;16.02;;;;;;;;;;5080863;28;20024;-69
2021/03/08 11:24:31;;;;;;;31.15;16.67;;;;;;;;;;5093353;28;20024;-69
2021/03/08 11:27:06;;;;;;;21.50;15.10;;;;;;;;;;5092782;28;20028;-69
2021/03/08 11:29:33;;;;;;;20.45;15.05;;;;;;;;;;5080415;28;20464;-68
2021/03/08 11:31:59;;;;;;;23.75;15.23;;;;;;;;;;5093344;28;20027;-68
2021/03/08 11:34:39;;;;;;;23.13;15.45;;;;;;;;;;5075259;28;20104;-68
2021/03/08 11:37:13;;;;;;;21.75;14.85;;;;;;;;;;5072527;28;20420;-70
2021/03/08 11:39:43;;;;;;;23.30;14.82;;;;;;;;;;5072291;28;20033;-70
2021/03/08 11:42:09;;;;;;;21.45;14.40;;;;;;;;;;5068878;28;20045;-70
2021/03/08 11:44:36;;;;;;;20.80;13.25;;;;;;;;;;5070427;28;20036;-69
2021/03/08 11:47:02;;;;;;;27.65;15.32;;;;;;;;;;5058587;28;20055;-69
2021/03/08 11:49:28;;;;;;;22.23;16.10;;;;;;;;;;5073623;28;20025;-69
2021/03/08 11:51:55;;;;;;;29.38;15.57;;;;;;;;;;5067056;28;20103;-69
2021/03/08 11:54:21;;;;;;;23.48;16.05;;;;;;;;;;5062763;28;20013;-70
2021/03/08 11:56:47;;;;;;;22.38;15.05;;;;;;;;;;5073509;28;20055;-69
2021/03/08 11:59:13;;;;;;;20.70;14.32;;;;;;;;;;5093436;28;20016;-70
2021/03/08 12:01:40;;;;;;;19.45;11.57;;;;;;;;;;5089905;28;20032;-68
2021/03/08 12:04:06;;;;;;;27.13;14.27;;;;;;;;;;5060377;28;20106;-68
2021/03/08 12:06:32;;;;;;;19.55;14.98;;;;;;;;;;5060695;28;20073;-68
2021/03/08 12:08:58;;;;;;;21.05;15.43;;;;;;;;;;5067232;28;20175;-69
2021/03/08 12:11:24;;;;;;;19.23;14.00;;;;;;;;;;5056858;28;20108;-69
2021/03/08 12:13:50;;;;;;;24.75;15.13;;;;;;;;;;5056535;28;20056;-70
2021/03/08 12:16:17;;;;;;;61.05;18.05;;;;;;;;;;5060688;28;20489;-70
2021/03/08 12:18:43;;;;;;;23.08;14.40;;;;;;;;;;5069200;28;20033;-70
2021/03/08 12:21:09;;;;;;;20.30;14.00;;;;;;;;;;5074300;28;20033;-70
2021/03/08 12:23:35;;;;;;;20.15;14.55;;;;;;;;;;5074973;28;20033;-70
2021/03/08 12:26:01;;;;;;;22.35;14.13;;;;;;;;;;5074699;28;20036;-70
2021/03/08 12:28:27;;;;;;;23.65;15.30;;;;;;;;;;5074477;28;20031;-70
2021/03/08 12:30:54;;;;;;;22.73;15.70;;;;;;;;;;5074544;28;20025;-70
2021/03/08 12:33:21;;;;;;;21.60;14.52;;;;;;;;;;5074555;28;20055;-70
2021/03/08 12:35:47;;;;;;;20.50;14.52;;;;;;;;;;5074464;28;20020;-69
2021/03/08 12:38:13;;;;;;;22.25;14.50;;;;;;;;;;5074419;28;20032;-70
2021/03/08 12:40:39;;;;;;;21.15;15.07;;;;;;;;;;5074184;28;20090;-71
2021/03/08 12:43:06;;;;;;;22.83;16.17;;;;;;;;;;5074604;28;20376;-70
2021/03/08 12:45:32;;;;;;;19.95;14.18;;;;;;;;;;5074740;28;20033;-71
2021/03/08 12:47:58;;;;;;;21.25;14.80;;;;;;;;;;5073897;28;20024;-71
2021/03/08 12:50:24;;;;;;;24.20;12.90;;;;;;;;;;5074066;28;20025;-70
2021/03/08 12:52:50;;;;;;;22.70;14.40;;;;;;;;;;5074272;28;20434;-69
2021/03/08 12:55:17;;;;;;;23.42;16.25;;;;;;;;;;5074165;28;20024;-69
2021/03/08 12:57:43;;;;;;;20.92;13.75;;;;;;;;;;5074246;28;20075;-70
2021/03/08 13:00:09;;;;;;;22.67;15.32;;;;;;;;;;5073787;28;20464;-69
2021/03/08 13:02:36;;;;;;;21.15;15.18;;;;;;;;;;5090799;28;20016;-70
2021/03/08 13:05:02;;;;;;;22.52;14.88;;;;;;;;;;5088372;28;20032;-69
2021/03/08 13:07:28;;;;;;;24.25;16.75;;;;;;;;;;5094377;28;20027;-70
2021/03/08 13:09:54;;;;;;;36.05;22.42;;;;;;;;;;5094087;28;20024;-69
2021/03/08 13:12:21;;;;;;;22.83;16.30;;;;;;;;;;5094238;28;20052;-69
2021/03/08 13:14:47;;;;;;;34.95;16.70;;;;;;;;;;5093841;28;20046;-70
2021/03/08 13:17:14;;;;;;;23.20;14.68;;;;;;;;;;5067290;28;20031;-68
2021/03/08 13:19:40;;;;;;;19.92;14.27;;;;;;;;;;5069726;28;20037;-69
2021/03/08 13:22:08;;;;;;;22.85;15.18;;;;;;;;;;5076597;28;20037;-68
2021/03/08 13:24:34;;;;;;;21.45;15.23;;;;;;;;;;5072893;28;20025;-69
2021/03/08 13:27:06;;;;;;;27.08;15.85;;;;;;;;;;5073507;28;20032;-69
2021/03/08 13:29:33;;;;;;;30.70;16.27;;;;;;;;;;5072097;28;20074;-70
2021/03/08 13:32:00;;;;;;;24.48;16.02;;;;;;;;;;5073374;28;20115;-69
2021/03/08 13:34:26;;;;;;;29.10;15.30;;;;;;;;;;5073884;28;20035;-69
2021/03/08 13:36:52;;;;;;;34.10;17.13;;;;;;;;;;5073173;28;20029;-69
2021/03/08 13:39:18;;;;;;;23.17;14.77;;;;;;;;;;5075479;28;20028;-69
2021/03/08 13:41:44;;;;;;;22.55;16.35;;;;;;;;;;5082020;28;20097;-70
2021/03/08 13:44:10;;;;;;;31.60;19.05;;;;;;;;;;5073294;28;20029;-69
2021/03/08 13:46:37;;;;;;;22.88;15.82;;;;;;;;;;5088596;28;20034;-70
2021/03/08 13:49:03;;;;;;;23.00;16.05;;;;;;;;;;5084816;28;20074;-69
2021/03/08 13:51:29;;;;;;;25.20;17.27;;;;;;;;;;5072695;28;20021;-69
2021/03/08 13:53:56;;;;;;;25.30;15.82;;;;;;;;;;5084939;28;20035;-69
2021/03/08 13:56:22;;;;;;;25.27;16.42;;;;;;;;;;5091524;28;20032;-69
2021/03/08 13:58:49;;;;;;;23.05;16.00;;;;;;;;;;5077748;28;20548;-68
2021/03/08 14:01:15;;;;;;;20.08;15.48;;;;;;;;;;5079906;28;20046;-69
2021/03/08 14:03:43;;;;;;;22.15;14.52;;;;;;;;;;5084486;28;20492;-69
2021/03/08 14:06:10;;;;;;;24.30;15.80;;;;;;;;;;5078507;28;20024;-70
2021/03/08 14:08:36;;;;;;;21.08;15.48;;;;;;;;;;5084641;28;20049;-69
2021/03/08 14:11:03;;;;;;;25.48;16.25;;;;;;;;;;5082578;28;20028;-70
2021/03/08 14:13:29;;;;;;;24.00;16.85;;;;;;;;;;5085496;28;20031;-69
2021/03/08 14:15:55;;;;;;;30.75;18.25;;;;;;;;;;5063858;28;20071;-69
2021/03/08 14:18:21;;;;;;;27.42;18.95;;;;;;;;;;5083742;28;20118;-68
2021/03/08 14:20:48;;;;;;;25.60;17.00;;;;;;;;;;5077738;28;20055;-68
2021/03/08 14:23:14;;;;;;;22.00;16.02;;;;;;;;;;5092757;28;20077;-68
2021/03/08 14:25:40;;;;;;;23.33;15.98;;;;;;;;;;5092567;28;20020;-68
2021/03/08 14:28:06;;;;;;;27.55;16.33;;;;;;;;;;5092442;28;20111;-68
2021/03/08 14:30:32;;;;;;;22.38;17.08;;;;;;;;;;5080921;28;20032;-67
2021/03/08 14:33:02;;;;;;;22.25;15.52;;;;;;;;;;5092590;28;20034;-68
2021/03/08 14:35:28;;;;;;;21.63;15.07;;;;;;;;;;5085915;28;20077;-67
2021/03/08 14:37:54;;;;;;;20.90;16.15;;;;;;;;;;5090430;28;20111;-68